Time;durP1;ratioP1;P1;durP2;ratioP2;P2;SDS_P1;SDS_P2;PMS_P1;PMS_P2;Temp;Humidity;BMP_temperature;BMP_pressure;BME280_temperature;BME280_humidity;BME280_pressure;Samples;Min_cycle;Max_cycle;Signal;HPM_P1;HPM_P2
2022/10/09 00:00:51;;;;;;;11.15;3.35;;;;;;;;;;5028914;28;20562;-66
2022/10/09 00:03:19;;;;;;;11.45;3.72;;;;;;;;;;5013529;28;20064;-65
2022/10/09 00:05:46;;;;;;;10.88;3.38;;;;;;;;;;5025681;28;20070;-65
2022/10/09 00:08:14;;;;;;;10.48;3.00;;;;;;;;;;5013863;28;20051;-64
2022/10/09 00:10:42;;;;;;;11.52;3.10;;;;;;;;;;5008583;28;20352;-64
2022/10/09 00:13:09;;;;;;;10.55;3.35;;;;;;;;;;5015819;28;20090;-64
2022/10/09 00:15:40;;;;;;;10.85;3.30;;;;;;;;;;5023525;28;20033;-65
2022/10/09 00:18:09;;;;;;;11.43;3.83;;;;;;;;;;5030095;28;20491;-65
2022/10/09 00:20:37;;;;;;;9.55;3.72;;;;;;;;;;5015560;28;20353;-65
2022/10/09 00:23:05;;;;;;;10.88;4.00;;;;;;;;;;5030168;28;20091;-65
2022/10/09 00:25:34;;;;;;;10.65;3.70;;;;;;;;;;5025850;28;20028;-65
2022/10/09 00:28:03;;;;;;;10.77;3.40;;;;;;;;;;5031062;28;20489;-65
2022/10/09 00:30:30;;;;;;;9.93;3.08;;;;;;;;;;5012915;28;20075;-64
2022/10/09 00:32:58;;;;;;;11.13;2.83;;;;;;;;;;5027606;28;20039;-64
2022/10/09 00:35:24;;;;;;;9.35;2.50;;;;;;;;;;5013694;28;20468;-65
2022/10/09 00:37:51;;;;;;;8.45;2.53;;;;;;;;;;5013014;28;20452;-65
2022/10/09 00:40:19;;;;;;;9.52;3.10;;;;;;;;;;5013559;28;20025;-65
2022/10/09 00:42:47;;;;;;;11.07;2.78;;;;;;;;;;5009797;28;20032;-65
2022/10/09 00:45:20;;;;;;;11.00;3.33;;;;;;;;;;5011046;28;20037;-65
2022/10/09 00:47:49;;;;;;;12.95;3.10;;;;;;;;;;5008918;28;20172;-64
2022/10/09 00:50:19;;;;;;;9.00;2.85;;;;;;;;;;5009969;28;20415;-65
2022/10/09 00:52:46;;;;;;;9.18;2.50;;;;;;;;;;5005213;28;20033;-64
2022/10/09 00:55:14;;;;;;;14.02;2.90;;;;;;;;;;5008728;28;20045;-65
2022/10/09 00:57:41;;;;;;;8.88;2.40;;;;;;;;;;5005723;28;20447;-64
2022/10/09 01:00:09;;;;;;;11.20;2.88;;;;;;;;;;5012941;28;20022;-66
2022/10/09 01:02:35;;;;;;;13.57;3.30;;;;;;;;;;5010632;28;20030;-66
2022/10/09 01:05:02;;;;;;;11.85;3.40;;;;;;;;;;5009523;28;20033;-66
2022/10/09 01:07:46;;;;;;;11.77;3.15;;;;;;;;;;5013916;28;20029;-66
2022/10/09 01:10:12;;;;;;;12.30;3.50;;;;;;;;;;5008856;28;20021;-66
2022/10/09 01:12:46;;;;;;;9.55;3.10;;;;;;;;;;5010665;28;20025;-66
2022/10/09 01:15:17;;;;;;;12.05;4.18;;;;;;;;;;5009233;28;20033;-66
2022/10/09 01:17:46;;;;;;;10.35;3.70;;;;;;;;;;5005064;28;20268;-66
2022/10/09 01:20:15;;;;;;;10.45;3.08;;;;;;;;;;5012360;28;20029;-66
2022/10/09 01:22:50;;;;;;;11.57;3.15;;;;;;;;;;5005257;28;20813;-66
2022/10/09 01:25:26;;;;;;;9.30;2.88;;;;;;;;;;5007701;28;20669;-67
2022/10/09 01:27:52;;;;;;;11.10;2.60;;;;;;;;;;5011049;28;20033;-64
2022/10/09 01:30:18;;;;;;;;;;;;;;;;;;5014835;28;20039;-66
2022/10/09 01:32:48;;;;;;;9.38;3.20;;;;;;;;;;5005387;28;19913;-65
2022/10/09 01:35:15;;;;;;;8.38;2.75;;;;;;;;;;5007853;28;20298;-65
2022/10/09 01:37:54;;;;;;;8.90;2.60;;;;;;;;;;5028366;28;20033;-64
2022/10/09 01:40:21;;;;;;;8.55;3.08;;;;;;;;;;5030196;28;20533;-64
2022/10/09 01:42:47;;;;;;;8.82;2.35;;;;;;;;;;5029297;28;20029;-64
2022/10/09 01:45:14;;;;;;;12.15;3.00;;;;;;;;;;5030138;28;20044;-63
2022/10/09 01:47:41;;;;;;;8.57;2.50;;;;;;;;;;5028723;28;20034;-64
2022/10/09 01:50:10;;;;;;;11.95;2.50;;;;;;;;;;5026151;28;20032;-65
2022/10/09 01:52:42;;;;;;;8.30;2.40;;;;;;;;;;5024857;28;20052;-65
2022/10/09 01:55:21;;;;;;;14.35;2.75;;;;;;;;;;5029905;28;20075;-65
2022/10/09 01:58:01;;;;;;;9.98;2.70;;;;;;;;;;5027685;28;20029;-65
2022/10/09 02:00:35;;;;;;;9.50;2.65;;;;;;;;;;5025671;28;20033;-65
2022/10/09 02:03:04;;;;;;;10.18;3.13;;;;;;;;;;5028683;28;20314;-64
2022/10/09 02:05:31;;;;;;;10.40;2.88;;;;;;;;;;5025842;28;20068;-65
2022/10/09 02:07:59;;;;;;;9.82;3.88;;;;;;;;;;5012029;28;20029;-66
2022/10/09 02:10:27;;;;;;;11.10;3.42;;;;;;;;;;5012101;28;20044;-64
2022/10/09 02:12:55;;;;;;;12.50;3.80;;;;;;;;;;5032394;28;20433;-65
2022/10/09 02:15:24;;;;;;;11.05;4.05;;;;;;;;;;5024113;28;20235;-65
2022/10/09 02:17:53;;;;;;;11.18;4.32;;;;;;;;;;5027675;28;20112;-64
2022/10/09 02:20:23;;;;;;;10.15;4.00;;;;;;;;;;5013876;28;20037;-64
2022/10/09 02:22:51;;;;;;;12.15;4.22;;;;;;;;;;5015079;28;20133;-65
2022/10/09 02:25:18;;;;;;;10.32;3.50;;;;;;;;;;5017647;28;20037;-65
2022/10/09 02:27:46;;;;;;;9.93;3.85;;;;;;;;;;5011496;28;20034;-64
2022/10/09 02:30:15;;;;;;;10.45;4.10;;;;;;;;;;5014578;28;20379;-64
2022/10/09 02:32:42;;;;;;;10.63;3.92;;;;;;;;;;5009143;28;20045;-64
2022/10/09 02:35:09;;;;;;;10.48;3.72;;;;;;;;;;4991812;28;20143;-65
2022/10/09 02:37:37;;;;;;;8.68;3.83;;;;;;;;;;5008765;28;20108;-64
2022/10/09 02:40:04;;;;;;;9.13;3.60;;;;;;;;;;4992159;28;20273;-65
2022/10/09 02:42:32;;;;;;;11.00;2.97;;;;;;;;;;5010292;28;20032;-65
2022/10/09 02:45:00;;;;;;;9.82;3.33;;;;;;;;;;5011460;28;20069;-64
2022/10/09 02:47:26;;;;;;;10.35;3.30;;;;;;;;;;5006575;28;20029;-65
2022/10/09 02:49:55;;;;;;;9.02;3.13;;;;;;;;;;5008762;28;20037;-64
2022/10/09 02:52:21;;;;;;;7.82;3.22;;;;;;;;;;4989291;28;20442;-64
2022/10/09 02:54:47;;;;;;;;;;;;;;;;;;5009469;28;20104;-64
2022/10/09 02:57:13;;;;;;;10.65;2.92;;;;;;;;;;5007799;28;19942;-64
2022/10/09 02:59:39;;;;;;;11.02;3.00;;;;;;;;;;5005628;28;20026;-65
2022/10/09 03:02:05;;;;;;;10.23;3.35;;;;;;;;;;5008119;28;20490;-65
2022/10/09 03:04:32;;;;;;;9.20;3.35;;;;;;;;;;5006980;28;20033;-65
2022/10/09 03:06:58;;;;;;;10.93;3.15;;;;;;;;;;5010933;28;20091;-65
2022/10/09 03:09:24;;;;;;;7.90;2.78;;;;;;;;;;5006325;28;20357;-65
2022/10/09 03:11:50;;;;;;;9.23;3.30;;;;;;;;;;5009396;28;20406;-66
2022/10/09 03:14:16;;;;;;;9.25;2.75;;;;;;;;;;5003466;28;20342;-65
2022/10/09 03:16:42;;;;;;;9.90;3.10;;;;;;;;;;4985486;28;20128;-65
2022/10/09 03:19:08;;;;;;;;;;;;;;;;;;5012225;28;20079;-65
2022/10/09 03:21:35;;;;;;;12.13;3.70;;;;;;;;;;4987028;28;19916;-65
2022/10/09 03:24:01;;;;;;;;;;;;;;;;;;5001246;28;20988;-65
2022/10/09 03:26:27;;;;;;;8.20;3.17;;;;;;;;;;4989075;28;19921;-65
2022/10/09 03:28:53;;;;;;;;;;;;;;;;;;4977334;28;20026;-65
2022/10/09 03:31:20;;;;;;;13.80;3.55;;;;;;;;;;4998715;28;19916;-65
2022/10/09 03:33:46;;;;;;;8.40;3.10;;;;;;;;;;4977152;28;20865;-65
2022/10/09 03:36:12;;;;;;;12.40;3.25;;;;;;;;;;4979275;28;20612;-65
2022/10/09 03:38:39;;;;;;;8.68;3.33;;;;;;;;;;4996677;28;20087;-65
2022/10/09 03:41:05;;;;;;;11.10;3.15;;;;;;;;;;4997335;28;20040;-65
2022/10/09 03:43:32;;;;;;;10.45;3.60;;;;;;;;;;4998467;28;20038;-65
2022/10/09 03:45:58;;;;;;;11.02;3.60;;;;;;;;;;4998733;28;20032;-64
2022/10/09 03:48:25;;;;;;;9.95;3.67;;;;;;;;;;4989091;28;20354;-65
2022/10/09 03:50:52;;;;;;;13.43;4.30;;;;;;;;;;4997687;28;20392;-65
2022/10/09 03:53:20;;;;;;;7.97;3.40;;;;;;;;;;4996109;28;20037;-65
2022/10/09 03:55:47;;;;;;;9.52;3.30;;;;;;;;;;4994307;28;20057;-65
2022/10/09 03:58:14;;;;;;;9.82;3.13;;;;;;;;;;5004332;28;20046;-65
2022/10/09 04:00:44;;;;;;;9.82;3.67;;;;;;;;;;4991561;28;22270;-65
2022/10/09 04:03:12;;;;;;;11.65;3.28;;;;;;;;;;4997761;28;20037;-65
2022/10/09 04:05:39;;;;;;;9.82;3.28;;;;;;;;;;4993824;28;20409;-65
2022/10/09 04:08:06;;;;;;;8.65;3.10;;;;;;;;;;4998804;28;20092;-65
2022/10/09 04:10:32;;;;;;;10.55;3.50;;;;;;;;;;4994725;28;20033;-65
2022/10/09 04:12:59;;;;;;;10.68;3.05;;;;;;;;;;4995892;28;20038;-65
2022/10/09 04:15:26;;;;;;;13.48;3.92;;;;;;;;;;4997402;28;20033;-65
2022/10/09 04:17:52;;;;;;;10.88;3.42;;;;;;;;;;4983361;28;20029;-65
2022/10/09 04:20:20;;;;;;;8.27;3.30;;;;;;;;;;4982630;28;20029;-65
2022/10/09 04:22:47;;;;;;;12.15;4.13;;;;;;;;;;4992500;28;20158;-65
2022/10/09 04:25:15;;;;;;;12.15;3.75;;;;;;;;;;4988875;28;20037;-65
2022/10/09 04:27:42;;;;;;;12.35;4.07;;;;;;;;;;4969197;28;20863;-65
2022/10/09 04:30:10;;;;;;;11.30;3.83;;;;;;;;;;4988553;28;20480;-64
2022/10/09 04:32:37;;;;;;;9.77;4.15;;;;;;;;;;4988641;28;20034;-64
2022/10/09 04:35:05;;;;;;;9.05;3.50;;;;;;;;;;4993410;28;20061;-64
2022/10/09 04:37:35;;;;;;;9.15;3.47;;;;;;;;;;4985591;28;20038;-64
2022/10/09 04:40:03;;;;;;;9.07;3.50;;;;;;;;;;4971860;28;20484;-64
2022/10/09 04:42:30;;;;;;;10.35;4.78;;;;;;;;;;4986475;28;20397;-64
2022/10/09 04:44:58;;;;;;;12.35;5.03;;;;;;;;;;4989951;28;20326;-65
2022/10/09 04:47:24;;;;;;;12.48;4.88;;;;;;;;;;4983419;28;20489;-65
2022/10/09 04:49:50;;;;;;;8.77;3.70;;;;;;;;;;4991898;28;20065;-66
2022/10/09 04:52:16;;;;;;;8.82;3.53;;;;;;;;;;4973805;28;20057;-66
2022/10/09 04:54:42;;;;;;;8.45;3.65;;;;;;;;;;4988794;28;20034;-66
2022/10/09 04:57:08;;;;;;;9.35;3.72;;;;;;;;;;4988581;28;21053;-66
2022/10/09 04:59:34;;;;;;;10.25;3.97;;;;;;;;;;4988792;28;20050;-65
2022/10/09 05:02:00;;;;;;;11.93;4.10;;;;;;;;;;4989754;28;20361;-64
2022/10/09 05:04:27;;;;;;;12.57;4.28;;;;;;;;;;4990516;28;20025;-64
2022/10/09 05:06:53;;;;;;;10.68;4.10;;;;;;;;;;5005643;28;20026;-65
2022/10/09 05:09:19;;;;;;;;;;;;;;;;;;4975660;28;20033;-64
2022/10/09 05:11:45;;;;;;;11.13;4.15;;;;;;;;;;4985192;28;19914;-64
2022/10/09 05:14:11;;;;;;;11.02;3.75;;;;;;;;;;5005210;28;20113;-64
2022/10/09 05:16:37;;;;;;;8.85;3.70;;;;;;;;;;4988966;28;20770;-65
2022/10/09 05:19:03;;;;;;;8.82;3.58;;;;;;;;;;4991619;28;20286;-65
2022/10/09 05:21:30;;;;;;;12.65;3.80;;;;;;;;;;4983963;28;20494;-65
2022/10/09 05:23:56;;;;;;;9.23;3.53;;;;;;;;;;4969495;28;20049;-65
2022/10/09 05:26:23;;;;;;;8.40;3.28;;;;;;;;;;4962972;28;20369;-65
2022/10/09 05:28:49;;;;;;;9.85;3.42;;;;;;;;;;4970864;28;20572;-65
2022/10/09 05:31:24;;;;;;;8.15;3.13;;;;;;;;;;4970424;28;20030;-65
2022/10/09 05:33:50;;;;;;;10.00;3.58;;;;;;;;;;4969901;28;20120;-65
2022/10/09 05:36:16;;;;;;;8.05;3.38;;;;;;;;;;4973135;28;20447;-65
2022/10/09 05:38:43;;;;;;;11.27;4.20;;;;;;;;;;4967001;28;20089;-65
2022/10/09 05:41:11;;;;;;;8.75;4.05;;;;;;;;;;4968460;28;20497;-64
2022/10/09 05:43:38;;;;;;;11.25;3.50;;;;;;;;;;4950517;28;20030;-65
2022/10/09 05:46:07;;;;;;;8.63;3.35;;;;;;;;;;4951739;28;20480;-64
2022/10/09 05:48:37;;;;;;;8.32;3.20;;;;;;;;;;4982010;28;20516;-65
2022/10/09 05:51:12;;;;;;;9.45;3.00;;;;;;;;;;4970616;28;20061;-64
2022/10/09 05:53:39;;;;;;;8.75;3.20;;;;;;;;;;4979931;28;20156;-66
2022/10/09 05:56:18;;;;;;;9.68;3.35;;;;;;;;;;4984291;28;20030;-67
2022/10/09 05:58:49;;;;;;;9.27;3.55;;;;;;;;;;4966272;28;20122;-67
2022/10/09 06:01:17;;;;;;;11.27;4.10;;;;;;;;;;4970465;28;20034;-68
2022/10/09 06:03:48;;;;;;;11.27;4.32;;;;;;;;;;4966959;28;20034;-67
2022/10/09 06:06:16;;;;;;;12.50;3.85;;;;;;;;;;4970180;28;20354;-67
2022/10/09 06:08:43;;;;;;;12.05;3.83;;;;;;;;;;4948549;28;20542;-66
2022/10/09 06:11:12;;;;;;;9.75;3.88;;;;;;;;;;4968497;28;20050;-67
2022/10/09 06:13:40;;;;;;;8.65;3.65;;;;;;;;;;4966656;28;20113;-67
2022/10/09 06:16:10;;;;;;;8.45;3.72;;;;;;;;;;4969279;28;20034;-66
2022/10/09 06:18:38;;;;;;;11.20;3.70;;;;;;;;;;4982296;28;20178;-67
2022/10/09 06:21:06;;;;;;;9.45;3.70;;;;;;;;;;4951280;28;20500;-67
2022/10/09 06:23:33;;;;;;;8.02;3.17;;;;;;;;;;4981462;28;20053;-67
2022/10/09 06:26:03;;;;;;;8.80;3.30;;;;;;;;;;5000524;28;21009;-67
2022/10/09 06:28:31;;;;;;;7.65;2.92;;;;;;;;;;5000961;28;20029;-67
2022/10/09 06:31:06;;;;;;;8.57;3.00;;;;;;;;;;4972017;28;20398;-67
2022/10/09 06:33:34;;;;;;;7.53;2.88;;;;;;;;;;4981683;28;20040;-67
2022/10/09 06:36:02;;;;;;;7.82;3.03;;;;;;;;;;4986264;28;20254;-67
2022/10/09 06:38:29;;;;;;;9.10;3.20;;;;;;;;;;4968486;28;20026;-67
2022/10/09 06:40:55;;;;;;;11.68;3.60;;;;;;;;;;4988849;28;20026;-67
2022/10/09 06:43:23;;;;;;;14.93;4.40;;;;;;;;;;4990113;28;20447;-68
2022/10/09 06:45:50;;;;;;;10.88;3.15;;;;;;;;;;4986410;28;20535;-68
2022/10/09 06:48:17;;;;;;;10.13;3.50;;;;;;;;;;4986985;28;20128;-66
2022/10/09 06:50:43;;;;;;;7.70;2.78;;;;;;;;;;4982591;28;20033;-69
2022/10/09 06:53:09;;;;;;;12.80;3.10;;;;;;;;;;4989531;28;20209;-66
2022/10/09 06:55:36;;;;;;;8.13;2.83;;;;;;;;;;4987255;28;20496;-67
2022/10/09 06:58:02;;;;;;;9.20;3.13;;;;;;;;;;4991001;28;20052;-67
2022/10/09 07:00:28;;;;;;;8.18;3.15;;;;;;;;;;4983587;28;20551;-67
2022/10/09 07:02:55;;;;;;;7.50;2.60;;;;;;;;;;4987405;28;20018;-67
2022/10/09 07:05:21;;;;;;;7.30;2.25;;;;;;;;;;4989078;28;20026;-67
2022/10/09 07:07:47;;;;;;;;;;;;;;;;;;4987659;28;20037;-67
2022/10/09 07:10:13;;;;;;;6.97;2.60;;;;;;;;;;4988511;28;19913;-67
2022/10/09 07:12:39;;;;;;;;;;;;;;;;;;4985445;28;20505;-67
2022/10/09 07:15:06;;;;;;;8.23;2.80;;;;;;;;;;4985100;28;19996;-67
2022/10/09 07:17:32;;;;;;;7.20;2.30;;;;;;;;;;4987926;28;20033;-67
2022/10/09 07:19:58;;;;;;;5.72;2.20;;;;;;;;;;4988504;28;20057;-67
2022/10/09 07:22:24;;;;;;;9.18;2.63;;;;;;;;;;4984825;28;20037;-67
2022/10/09 07:24:50;;;;;;;;;;;;;;;;;;4986040;28;20030;-67
2022/10/09 07:27:17;;;;;;;7.63;2.75;;;;;;;;;;4988050;28;20352;-68
2022/10/09 07:29:43;;;;;;;8.68;2.42;;;;;;;;;;4982428;28;20037;-67
2022/10/09 07:32:09;;;;;;;10.65;2.83;;;;;;;;;;5002677;28;20113;-67
2022/10/09 07:34:36;;;;;;;10.63;3.33;;;;;;;;;;4987403;28;20026;-67
2022/10/09 07:37:02;;;;;;;10.98;3.00;;;;;;;;;;4988831;28;20030;-67
2022/10/09 07:39:28;;;;;;;;;;;;;;;;;;4986043;28;20089;-67
2022/10/09 07:41:54;;;;;;;6.85;2.17;;;;;;;;;;4982185;28;20406;-67
2022/10/09 07:44:20;;;;;;;;;;;;;;;;;;4984638;28;20563;-68
2022/10/09 07:46:50;;;;;;;7.28;2.15;;;;;;;;;;4978333;28;19920;-67
2022/10/09 07:49:17;;;;;;;7.35;2.30;;;;;;;;;;4981547;28;20022;-67
2022/10/09 07:51:44;;;;;;;7.05;2.25;;;;;;;;;;4983154;28;20034;-66
2022/10/09 07:54:12;;;;;;;7.68;2.30;;;;;;;;;;4983833;28;20149;-67
2022/10/09 07:56:39;;;;;;;9.10;2.30;;;;;;;;;;4957509;28;20427;-66
2022/10/09 07:59:11;;;;;;;7.80;2.20;;;;;;;;;;4984812;28;20041;-67
2022/10/09 08:01:38;;;;;;;7.57;2.28;;;;;;;;;;4978596;28;20328;-67
2022/10/09 08:04:05;;;;;;;8.85;2.05;;;;;;;;;;4999612;28;20035;-66
2022/10/09 08:06:33;;;;;;;7.35;2.15;;;;;;;;;;4976896;28;20499;-67
2022/10/09 08:09:01;;;;;;;10.43;2.45;;;;;;;;;;4983009;28;20068;-67
2022/10/09 08:11:29;;;;;;;7.20;2.38;;;;;;;;;;4980630;28;20089;-67
2022/10/09 08:13:56;;;;;;;7.15;2.10;;;;;;;;;;4980173;28;20347;-67
2022/10/09 08:16:24;;;;;;;8.32;2.15;;;;;;;;;;4966934;28;20530;-68
2022/10/09 08:18:55;;;;;;;7.30;2.13;;;;;;;;;;4985614;28;20476;-68
2022/10/09 08:21:23;;;;;;;8.90;2.80;;;;;;;;;;4977957;28;20026;-68
2022/10/09 08:23:54;;;;;;;8.38;2.50;;;;;;;;;;4979999;28;20485;-68
2022/10/09 08:26:22;;;;;;;9.57;2.20;;;;;;;;;;4979330;28;20053;-68
2022/10/09 08:28:54;;;;;;;8.57;2.38;;;;;;;;;;4980330;28;20487;-67
2022/10/09 08:31:21;;;;;;;7.60;2.42;;;;;;;;;;4979466;28;20041;-67
2022/10/09 08:33:58;;;;;;;10.80;3.30;;;;;;;;;;4980413;28;20532;-68
2022/10/09 08:36:26;;;;;;;14.18;5.40;;;;;;;;;;4978452;28;20045;-69
2022/10/09 08:38:52;;;;;;;10.32;4.60;;;;;;;;;;4993141;28;20044;-67
2022/10/09 08:41:37;;;;;;;9.32;4.20;;;;;;;;;;4980549;28;20440;-68
2022/10/09 08:44:11;;;;;;;10.55;3.70;;;;;;;;;;4978801;28;20250;-68
2022/10/09 08:46:43;;;;;;;9.52;3.08;;;;;;;;;;4960807;28;20533;-68
2022/10/09 08:49:15;;;;;;;10.35;2.95;;;;;;;;;;4979810;28;20030;-68
2022/10/09 08:51:45;;;;;;;8.70;2.90;;;;;;;;;;4983984;28;20038;-68
2022/10/09 08:54:11;;;;;;;7.93;2.30;;;;;;;;;;4999814;28;20030;-68
2022/10/09 08:56:38;;;;;;;9.20;2.72;;;;;;;;;;4980350;28;20042;-67
2022/10/09 08:59:15;;;;;;;8.27;2.33;;;;;;;;;;4969680;28;20093;-68
2022/10/09 09:01:46;;;;;;;9.18;2.50;;;;;;;;;;4982088;28;21460;-66
2022/10/09 09:04:38;;;;;;;7.60;2.00;;;;;;;;;;4996263;28;20030;-67
2022/10/09 09:07:16;;;;;;;7.65;2.00;;;;;;;;;;4982164;28;20049;-68
2022/10/09 09:09:42;;;;;;;8.65;2.20;;;;;;;;;;4979735;28;20149;-67
2022/10/09 09:12:08;;;;;;;7.78;1.80;;;;;;;;;;4994006;28;20034;-67
2022/10/09 09:14:39;;;;;;;8.50;2.40;;;;;;;;;;4993522;28;20541;-68
2022/10/09 09:17:14;;;;;;;6.75;1.77;;;;;;;;;;4984877;28;20306;-67
2022/10/09 09:19:43;;;;;;;8.45;2.70;;;;;;;;;;4995333;28;20033;-68
2022/10/09 09:22:12;;;;;;;8.30;2.42;;;;;;;;;;4969248;28;20273;-67
2022/10/09 09:24:43;;;;;;;8.48;2.67;;;;;;;;;;4975887;28;20148;-68
2022/10/09 09:27:12;;;;;;;8.32;2.35;;;;;;;;;;4980685;28;20573;-67
2022/10/09 09:29:40;;;;;;;8.70;2.00;;;;;;;;;;4976703;28;20465;-68
2022/10/09 09:32:13;;;;;;;9.95;2.55;;;;;;;;;;4981541;28;20042;-67
2022/10/09 09:34:41;;;;;;;6.40;1.95;;;;;;;;;;4975203;28;20049;-67
2022/10/09 09:37:11;;;;;;;7.20;2.03;;;;;;;;;;4979168;28;20065;-68
2022/10/09 09:39:37;;;;;;;8.40;2.30;;;;;;;;;;4974872;28;20022;-67
2022/10/09 09:42:06;;;;;;;6.65;2.00;;;;;;;;;;4978514;28;20034;-68
2022/10/09 09:44:34;;;;;;;7.97;2.35;;;;;;;;;;4976250;28;20103;-67
2022/10/09 09:47:01;;;;;;;8.07;2.38;;;;;;;;;;4975171;28;20037;-67
2022/10/09 09:49:28;;;;;;;9.43;2.60;;;;;;;;;;4976352;28;20105;-68
2022/10/09 09:51:57;;;;;;;7.50;2.25;;;;;;;;;;4977308;28;20119;-68
2022/10/09 09:54:26;;;;;;;7.25;2.33;;;;;;;;;;4976199;28;20030;-68
2022/10/09 09:56:56;;;;;;;7.30;2.20;;;;;;;;;;4976483;28;20030;-68
2022/10/09 09:59:42;;;;;;;6.95;2.00;;;;;;;;;;4974943;28;20030;-67
2022/10/09 10:02:17;;;;;;;10.05;2.20;;;;;;;;;;4993370;28;20033;-68
2022/10/09 10:05:01;;;;;;;12.60;3.58;;;;;;;;;;4982047;28;20527;-68
2022/10/09 10:07:37;;;;;;;8.38;2.90;;;;;;;;;;4977862;28;20575;-67
2022/10/09 10:10:13;;;;;;;9.45;2.90;;;;;;;;;;4979892;28;20038;-68
2022/10/09 10:12:42;;;;;;;8.75;2.53;;;;;;;;;;4979186;28;20026;-67
2022/10/09 10:15:23;;;;;;;7.80;2.38;;;;;;;;;;4980987;28;20097;-68
2022/10/09 10:17:55;;;;;;;10.23;2.65;;;;;;;;;;4987692;28;20034;-68
2022/10/09 10:20:23;;;;;;;9.30;3.10;;;;;;;;;;4977496;28;20487;-68
2022/10/09 10:22:54;;;;;;;9.82;2.85;;;;;;;;;;4981540;28;20042;-68
2022/10/09 10:25:24;;;;;;;10.07;2.90;;;;;;;;;;4977772;28;20034;-68
2022/10/09 10:27:56;;;;;;;9.25;2.40;;;;;;;;;;4976899;28;20909;-67
2022/10/09 10:30:23;;;;;;;9.88;2.22;;;;;;;;;;4976052;28;20449;-68
2022/10/09 10:33:07;;;;;;;6.25;2.03;;;;;;;;;;4977033;28;20065;-69
2022/10/09 10:35:40;;;;;;;11.70;2.35;;;;;;;;;;4972762;28;20037;-68
2022/10/09 10:38:43;;;;;;;7.10;2.30;;;;;;;;;;4982525;28;20029;-68
2022/10/09 10:41:28;;;;;;;7.18;2.20;;;;;;;;;;4884396;29;20032;-68
2022/10/09 10:44:00;;;;;;;9.45;2.20;;;;;;;;;;4881782;29;20144;-68
2022/10/09 10:46:47;;;;;;;8.57;2.40;;;;;;;;;;4876114;29;20577;-67
2022/10/09 10:49:17;;;;;;;9.32;2.58;;;;;;;;;;4880889;29;20044;-68
2022/10/09 10:51:43;;;;;;;8.82;2.40;;;;;;;;;;4874924;29;20075;-68
2022/10/09 10:54:15;;;;;;;7.10;2.35;;;;;;;;;;4896617;29;20073;-68
2022/10/09 10:56:48;;;;;;;7.90;1.98;;;;;;;;;;4874105;29;21300;-68
2022/10/09 10:59:33;;;;;;;8.60;2.30;;;;;;;;;;4879949;29;20045;-68
2022/10/09 11:02:19;;;;;;;10.65;2.30;;;;;;;;;;4877729;29;20044;-68
2022/10/09 11:05:12;;;;;;;9.57;2.42;;;;;;;;;;4873158;29;20043;-67
2022/10/09 11:08:10;;;;;;;10.45;3.13;;;;;;;;;;4871680;29;20045;-68
2022/10/09 11:10:36;;;;;;;9.30;2.60;;;;;;;;;;4876581;29;20103;-68
2022/10/09 11:13:11;;;;;;;7.38;2.13;;;;;;;;;;4881693;29;20852;-67
2022/10/09 11:15:37;;;;;;;8.93;2.60;;;;;;;;;;4903393;28;20050;-69
2022/10/09 11:18:03;;;;;;;10.15;2.33;;;;;;;;;;4921459;28;20043;-68
2022/10/09 11:20:41;;;;;;;10.00;3.00;;;;;;;;;;4917717;28;20063;-68
2022/10/09 11:23:21;;;;;;;10.13;2.90;;;;;;;;;;4920430;28;20418;-68
2022/10/09 11:25:56;;;;;;;8.85;3.00;;;;;;;;;;4913037;28;20138;-68
2022/10/09 11:28:23;;;;;;;8.82;2.42;;;;;;;;;;4910176;28;20035;-68
2022/10/09 11:31:08;;;;;;;10.85;2.55;;;;;;;;;;4915485;28;20074;-68
2022/10/09 11:33:48;;;;;;;8.70;2.17;;;;;;;;;;4910855;28;20090;-68
2022/10/09 11:36:37;;;;;;;7.97;2.33;;;;;;;;;;4913105;28;20582;-69
2022/10/09 11:39:04;;;;;;;8.15;2.60;;;;;;;;;;4914889;28;20043;-68
2022/10/09 11:41:31;;;;;;;10.30;2.80;;;;;;;;;;4911560;28;20114;-69
2022/10/09 11:44:16;;;;;;;11.50;2.78;;;;;;;;;;4911094;28;20146;-68
2022/10/09 11:47:02;;;;;;;11.40;2.83;;;;;;;;;;4938627;28;20042;-69
2022/10/09 11:49:48;;;;;;;10.68;3.10;;;;;;;;;;4978730;28;20038;-68
2022/10/09 11:52:43;;;;;;;10.88;2.55;;;;;;;;;;4980634;28;20620;-68
2022/10/09 11:55:24;;;;;;;9.77;2.60;;;;;;;;;;4902435;29;20048;-68
2022/10/09 11:57:52;;;;;;;11.00;3.17;;;;;;;;;;4886878;29;20059;-68
2022/10/09 12:00:32;;;;;;;8.75;2.50;;;;;;;;;;4903626;29;20122;-68
2022/10/09 12:03:01;;;;;;;10.35;2.55;;;;;;;;;;4903980;29;20028;-68
2022/10/09 12:05:46;;;;;;;10.00;2.38;;;;;;;;;;4902674;29;20047;-68
2022/10/09 12:08:26;;;;;;;7.72;2.40;;;;;;;;;;4906822;29;20459;-68
2022/10/09 12:10:55;;;;;;;8.98;3.33;;;;;;;;;;4904805;29;20040;-67
2022/10/09 12:13:49;;;;;;;9.02;2.70;;;;;;;;;;4904638;29;20046;-68
2022/10/09 12:16:34;;;;;;;9.70;2.40;;;;;;;;;;4817007;29;20244;-68
2022/10/09 12:19:04;;;;;;;11.23;2.58;;;;;;;;;;4832246;29;20046;-68
2022/10/09 12:21:49;;;;;;;8.25;2.45;;;;;;;;;;4814054;29;20136;-68
2022/10/09 12:24:18;;;;;;;10.80;2.50;;;;;;;;;;4830698;29;20046;-67
2022/10/09 12:26:47;;;;;;;6.88;1.90;;;;;;;;;;4811663;29;20134;-68
2022/10/09 12:29:49;;;;;;;10.55;2.00;;;;;;;;;;4833707;29;20118;-67
2022/10/09 12:32:37;;;;;;;8.25;2.00;;;;;;;;;;4830063;29;20532;-67
2022/10/09 12:35:18;;;;;;;8.00;2.40;;;;;;;;;;4863207;29;20686;-68
2022/10/09 12:37:45;;;;;;;7.32;2.17;;;;;;;;;;4832808;29;20152;-67
2022/10/09 12:40:17;;;;;;;10.07;2.20;;;;;;;;;;4850378;29;20643;-68
2022/10/09 12:42:45;;;;;;;8.48;2.05;;;;;;;;;;4849356;29;20883;-68
2022/10/09 12:45:21;;;;;;;8.52;2.42;;;;;;;;;;4851308;29;20037;-68
2022/10/09 12:47:48;;;;;;;10.05;2.10;;;;;;;;;;4850744;29;20347;-68
2022/10/09 12:50:16;;;;;;;8.95;2.20;;;;;;;;;;4852281;29;20059;-67
2022/10/09 12:52:52;;;;;;;10.25;2.35;;;;;;;;;;4872702;28;20072;-67
2022/10/09 12:55:30;;;;;;;9.95;2.45;;;;;;;;;;4925676;28;20525;-68
2022/10/09 12:57:58;;;;;;;9.60;2.80;;;;;;;;;;4908553;29;20135;-68
2022/10/09 13:00:27;;;;;;;9.45;2.22;;;;;;;;;;4904581;28;20158;-68
2022/10/09 13:02:53;;;;;;;10.75;1.83;;;;;;;;;;4926943;28;20130;-68
2022/10/09 13:05:19;;;;;;;10.75;2.35;;;;;;;;;;4914945;28;20431;-68
2022/10/09 13:07:50;;;;;;;7.82;2.15;;;;;;;;;;4977512;28;20056;-68
2022/10/09 13:10:17;;;;;;;9.48;2.28;;;;;;;;;;4981149;28;20030;-67
2022/10/09 13:12:48;;;;;;;10.43;2.28;;;;;;;;;;4975782;28;20121;-68
2022/10/09 13:15:47;;;;;;;8.13;2.03;;;;;;;;;;4982386;28;20038;-67
2022/10/09 13:18:20;;;;;;;10.80;2.40;;;;;;;;;;4944792;28;20051;-68
2022/10/09 13:20:57;;;;;;;8.35;2.28;;;;;;;;;;4943760;28;20535;-67
2022/10/09 13:23:35;;;;;;;9.38;2.47;;;;;;;;;;4942727;28;20581;-67
2022/10/09 13:26:03;;;;;;;8.75;1.90;;;;;;;;;;4923839;28;20425;-68
2022/10/09 13:28:29;;;;;;;8.30;2.10;;;;;;;;;;4943554;28;20352;-68
2022/10/09 13:30:55;;;;;;;9.88;2.13;;;;;;;;;;4945619;28;20086;-68
2022/10/09 13:33:22;;;;;;;10.38;2.45;;;;;;;;;;4943129;28;20038;-69
2022/10/09 13:35:48;;;;;;;10.40;2.05;;;;;;;;;;4945735;28;20569;-68
2022/10/09 13:38:16;;;;;;;9.85;2.83;;;;;;;;;;4944896;28;20436;-68
2022/10/09 13:40:43;;;;;;;8.55;2.42;;;;;;;;;;4941441;28;20335;-69
2022/10/09 13:43:17;;;;;;;9.10;2.40;;;;;;;;;;4944210;28;20066;-69
2022/10/09 13:45:43;;;;;;;8.45;2.05;;;;;;;;;;4920064;28;20031;-69
2022/10/09 13:48:10;;;;;;;10.30;2.45;;;;;;;;;;4944074;28;20311;-68
2022/10/09 13:50:38;;;;;;;8.18;2.38;;;;;;;;;;4941388;28;20027;-68
2022/10/09 13:53:05;;;;;;;8.88;2.17;;;;;;;;;;4950774;28;20092;-68
2022/10/09 13:55:33;;;;;;;11.20;2.63;;;;;;;;;;4992278;28;20030;-68
2022/10/09 13:58:00;;;;;;;8.40;2.10;;;;;;;;;;4964154;28;20025;-68
2022/10/09 14:00:28;;;;;;;9.32;2.38;;;;;;;;;;4977130;28;20033;-68
2022/10/09 14:03:02;;;;;;;10.65;2.22;;;;;;;;;;4982897;28;20060;-68
2022/10/09 14:05:29;;;;;;;11.55;2.55;;;;;;;;;;4976484;28;20369;-67
2022/10/09 14:07:56;;;;;;;9.15;2.20;;;;;;;;;;4979881;28;20960;-69
2022/10/09 14:10:24;;;;;;;11.80;2.60;;;;;;;;;;4975855;28;20057;-68
2022/10/09 14:12:51;;;;;;;10.60;2.63;;;;;;;;;;4982436;28;20076;-68
2022/10/09 14:15:18;;;;;;;11.23;2.78;;;;;;;;;;4984254;28;20099;-68
2022/10/09 14:17:46;;;;;;;9.30;2.20;;;;;;;;;;4979385;28;20466;-68
2022/10/09 14:20:14;;;;;;;11.05;2.35;;;;;;;;;;4992963;28;20038;-69
2022/10/09 14:22:41;;;;;;;10.63;2.13;;;;;;;;;;4973878;28;20046;-68
2022/10/09 14:25:09;;;;;;;7.90;2.33;;;;;;;;;;4969225;28;20102;-68
2022/10/09 14:27:37;;;;;;;8.70;2.67;;;;;;;;;;4978724;28;20552;-68
2022/10/09 14:30:04;;;;;;;9.25;2.20;;;;;;;;;;4984946;28;20468;-68
2022/10/09 14:32:32;;;;;;;12.30;2.22;;;;;;;;;;4976270;28;20026;-68
2022/10/09 14:34:59;;;;;;;12.18;2.22;;;;;;;;;;4984871;28;20041;-68
2022/10/09 14:37:26;;;;;;;11.18;2.63;;;;;;;;;;4976006;28;20033;-68
2022/10/09 14:39:55;;;;;;;9.85;2.45;;;;;;;;;;4981086;28;20065;-68
2022/10/09 14:42:22;;;;;;;8.90;2.42;;;;;;;;;;4951360;28;20026;-68
2022/10/09 14:44:49;;;;;;;10.25;2.22;;;;;;;;;;4973995;28;20367;-67
2022/10/09 14:47:16;;;;;;;11.45;2.50;;;;;;;;;;4982319;28;20029;-68
2022/10/09 14:49:42;;;;;;;12.43;2.63;;;;;;;;;;4992479;28;21052;-68
2022/10/09 14:52:08;;;;;;;9.68;2.30;;;;;;;;;;4982855;28;20077;-68
2022/10/09 14:54:34;;;;;;;11.38;2.30;;;;;;;;;;4983175;28;20037;-68
2022/10/09 14:57:00;;;;;;;11.32;2.38;;;;;;;;;;4985109;28;20029;-68